Liberty of The Seas — C6VQ8 — position and weather

sailwx.info

Track history (hours):
 
Tides and Currents Weather Stations Pressure Air Temp Water Temp Dewpoint Dewpoint Depression Visibility Wind Speed Wind Dir Waves Ship Positions

Liberty of The Seas

Last reported at 2016-Aug-23 21:34 UTC. Time now 2016-Aug-25 16:41 UTC.
Position N 20°34' W 086°57'.

Type: Passenger vessel. MMSI: 309436000.

Date/timePositionNaut miles runAvg speedWind from/ knotsBaromVisibWave heightAir tempDewpointWater temp
2016-Aug-23 21:34N 20°34' W 086°57'5 4.8
2016-Aug-23 20:33N 20°29' W 086°59'0 0.0
2016-Aug-23 19:33N 20°29' W 086°59'0 0.0
2016-Aug-23 18:33N 20°29' W 086°59'0 0.0
2016-Aug-23 17:33N 20°29' W 086°59'0 0.0
2016-Aug-23 16:32N 20°29' W 086°59'0 0.0
2016-Aug-23 15:32N 20°29' W 086°59'0 0.0
2016-Aug-23 14:34N 20°29' W 086°59'0 0.0
2016-Aug-23 13:34N 20°29' W 086°59'0 0.0
2016-Aug-23 12:34N 20°29' W 086°59'0 0.2
2016-Aug-23 11:33N 20°29' W 086°59'1615.7
2016-Aug-23 10:33N 20°43' W 086°50'63918.5
2016-Aug-22 00:00N 29°00' W 094°12'36 2.7 100 / 71015.110.8 1.026.4
2016-Aug-21 10:32N 29°19' W 094°47'22619.6
2016-Aug-20 23:00N 26°54' W 091°30'45819.1 170 / 101013.010.8 1.028.7
2016-Aug-19 23:00N 20°36' W 086°48'1022.0 110 / 141013.210.8 1.528.2
2016-Aug-19 22:33N 20°33' W 086°58'4 3.8
2016-Aug-19 21:33N 20°29' W 086°59'0 0.0
2016-Aug-19 20:30N 20°29' W 086°59'0 0.0
2016-Aug-19 19:33N 20°29' W 086°59'0 0.0
2016-Aug-19 18:33N 20°29' W 086°59'0 0.0
2016-Aug-19 17:34N 20°29' W 086°59'0 0.0
2016-Aug-19 16:34N 20°29' W 086°59'0 0.0
2016-Aug-19 15:34N 20°29' W 086°59'0 0.0
2016-Aug-19 14:34N 20°29' W 086°59'0 0.0
2016-Aug-19 13:32N 20°29' W 086°59'0 0.0
2016-Aug-19 12:31N 20°29' W 086°59'712.3
2016-Aug-19 12:00N 20°24' W 086°54'715.5 060 / 81015.110.8 0.526.2
2016-Aug-19 11:34N 20°29' W 086°59'8 7.9
2016-Aug-19 10:33N 20°23' W 087°04'111 4.9
2016-Aug-18 12:00N 18°36' W 087°36'15311.8 060 / 161014.510.8 1.527.0
2016-Aug-17 23:00N 16°12' W 086°42'   070 / 271011.0 5.4 1.527.7
2016-Aug-14 10:34N 29°19' W 094°47'  
Track history (hours):
 
Tides and Currents Weather Stations Pressure Air Temp Water Temp Dewpoint Dewpoint Depression Visibility Wind Speed Wind Dir Waves Ship Positions

Liberty of The Seas

Last reported at 2016-Aug-23 21:34 UTC. Time now 2016-Aug-25 16:41 UTC.
Position N 20°34' W 086°57'.

Type: Passenger vessel. MMSI: 309436000.

Date/timePositionNaut miles runAvg speedWind from/ knotsBaromVisibWave heightAir tempDewpointWater temp
2016-Aug-23 21:34N 20°34' W 086°57'5 4.8
2016-Aug-23 20:33N 20°29' W 086°59'0 0.0
2016-Aug-23 19:33N 20°29' W 086°59'0 0.0
2016-Aug-23 18:33N 20°29' W 086°59'0 0.0
2016-Aug-23 17:33N 20°29' W 086°59'0 0.0
2016-Aug-23 16:32N 20°29' W 086°59'0 0.0
2016-Aug-23 15:32N 20°29' W 086°59'0 0.0
2016-Aug-23 14:34N 20°29' W 086°59'0 0.0
2016-Aug-23 13:34N 20°29' W 086°59'0 0.0
2016-Aug-23 12:34N 20°29' W 086°59'0 0.2
2016-Aug-23 11:33N 20°29' W 086°59'1615.7
2016-Aug-23 10:33N 20°43' W 086°50'63918.5
2016-Aug-22 00:00N 29°00' W 094°12'36 2.7 100 / 71015.110.8 1.026.4
2016-Aug-21 10:32N 29°19' W 094°47'22619.6
2016-Aug-20 23:00N 26°54' W 091°30'45819.1 170 / 101013.010.8 1.028.7
2016-Aug-19 23:00N 20°36' W 086°48'1022.0 110 / 141013.210.8 1.528.2
2016-Aug-19 22:33N 20°33' W 086°58'4 3.8
2016-Aug-19 21:33N 20°29' W 086°59'0 0.0
2016-Aug-19 20:30N 20°29' W 086°59'0 0.0
2016-Aug-19 19:33N 20°29' W 086°59'0 0.0
2016-Aug-19 18:33N 20°29' W 086°59'0 0.0
2016-Aug-19 17:34N 20°29' W 086°59'0 0.0
2016-Aug-19 16:34N 20°29' W 086°59'0 0.0
2016-Aug-19 15:34N 20°29' W 086°59'0 0.0
2016-Aug-19 14:34N 20°29' W 086°59'0 0.0
2016-Aug-19 13:32N 20°29' W 086°59'0 0.0
2016-Aug-19 12:31N 20°29' W 086°59'712.3
2016-Aug-19 12:00N 20°24' W 086°54'715.5 060 / 81015.110.8 0.526.2
2016-Aug-19 11:34N 20°29' W 086°59'8 7.9
2016-Aug-19 10:33N 20°23' W 087°04'111 4.9
2016-Aug-18 12:00N 18°36' W 087°36'15311.8 060 / 161014.510.8 1.527.0
2016-Aug-17 23:00N 16°12' W 086°42'   070 / 271011.0 5.4 1.527.7
2016-Aug-14 10:34N 29°19' W 094°47'  

Dump ship's entire track history